ENNM/OSY METAR and TAF weather

Enter ICAO airport designator
Station Type Date Time Source
ENNM METAR 2021/05/14 07:50 UTC NOAA

ENNM 140750Z VRB02KT 9999 FEW010 SCT040 12/07 Q1009


Station Type Date Time Source
ENNM Decoded METAR 2021/05/14 07:50 UTC NOAA

Namsos Lufthavn, Norway (ENNM) 64-28N 011-35E 2M
May 14, 2021 - 03:50 AM EDT / 2021.05.14 0750 UTC
Wind: Variable at 2 MPH (2 KT):0
Visibility: greater than 7 mile(s):0
Sky conditions: partly cloudy
Temperature: 53 F (12 C)
Dew Point: 44 F (7 C)
Relative Humidity: 71%
Pressure (altimeter): 29.80 in. Hg (1009 hPa)
ob: ENNM 140750Z VRB02KT 9999 FEW010 SCT040 12/07 Q1009
cycle: 8

Station Type Date Time Source
ENNM TAF UTC NOAA

Error!

Example: see airport list